Time;durP1;ratioP1;P1;durP2;ratioP2;P2;SDS_P1;SDS_P2;PMS_P1;PMS_P2;Temp;Humidity;BMP_temperature;BMP_pressure;BME280_temperature;BME280_humidity;BME280_pressure;Samples;Min_cycle;Max_cycle;Signal;HPM_P1;HPM_P2
2022/04/10 00:01:07;;;;;;;6.68;2.25;;;;;;;15.57;72.81;100785.03;2068200;28;20108;-74
2022/04/10 00:02:28;;;;;;;10.70;2.20;;;;;;;15.56;72.82;100798.38;2076069;28;20041;-73
2022/04/10 00:03:51;;;;;;;12.55;2.00;;;;;;;15.55;72.87;100784.19;2069405;28;20104;-73
2022/04/10 00:05:13;;;;;;;11.88;2.47;;;;;;;15.54;72.81;100787.75;2083554;28;20041;-73
2022/04/10 00:06:35;;;;;;;9.15;1.85;;;;;;;15.53;72.91;100792.16;2080567;28;20049;-73
2022/04/10 00:07:57;;;;;;;3.90;1.55;;;;;;;15.52;72.95;100795.72;2076772;28;20045;-73
2022/04/10 00:09:19;;;;;;;9.60;1.30;;;;;;;15.52;73.06;100790.41;2069478;28;20045;-74
2022/04/10 00:10:42;;;;;;;5.20;1.45;;;;;;;15.52;72.90;100795.72;2069935;28;20054;-73
2022/04/10 00:12:08;;;;;;;6.82;1.95;;;;;;;15.51;72.77;100791.25;2069101;28;20111;-74
2022/04/10 00:13:30;;;;;;;4.57;1.27;;;;;;;15.48;72.78;100790.38;2070073;28;20050;-74
2022/04/10 00:14:52;;;;;;;9.82;2.03;;;;;;;15.47;72.68;100796.59;2077262;28;20045;-73
2022/04/10 00:16:14;;;;;;;7.97;2.42;;;;;;;15.44;72.78;100797.47;2077668;28;20049;-73
2022/04/10 00:17:36;;;;;;;6.60;1.58;;;;;;;15.43;72.88;100794.81;2069129;28;20046;-73
2022/04/10 00:19:04;;;;;;;9.60;2.20;;;;;;;15.43;73.07;100805.47;2069269;28;20060;-73
2022/04/10 00:20:26;;;;;;;8.15;1.63;;;;;;;15.42;72.97;100798.41;2076613;28;20439;-73
2022/04/10 00:21:48;;;;;;;4.45;1.90;;;;;;;15.42;73.19;100809.94;2076755;28;20452;-73
2022/04/10 00:23:10;;;;;;;9.85;2.38;;;;;;;15.44;73.25;100817.88;2080299;28;20152;-74
2022/04/10 00:24:31;;;;;;;13.55;2.22;;;;;;;15.44;73.16;100818.75;2077515;28;20521;-73
2022/04/10 00:25:54;;;;;;;10.57;2.30;;;;;;;15.44;73.07;100813.44;2076530;28;20049;-73
2022/04/10 00:27:19;;;;;;;6.55;1.38;;;;;;;15.44;73.02;100817.88;2064492;28;20049;-73
2022/04/10 00:28:41;;;;;;;6.35;1.77;;;;;;;15.40;73.10;100821.44;2069234;28;20083;-73
2022/04/10 00:30:04;;;;;;;1.73;0.60;;;;;;;15.37;73.06;100813.47;2075123;28;20052;-73
2022/04/10 00:31:26;;;;;;;;;;;;;;;15.35;73.00;100810.84;2075422;28;20591;-73
2022/04/10 00:32:47;;;;;;;8.35;1.83;;;;;;;15.28;73.22;100802.88;2082870;28;20269;-73
2022/04/10 00:34:10;;;;;;;7.35;2.10;;;;;;;15.26;73.33;100807.31;2080048;28;20056;-73
2022/04/10 00:35:33;;;;;;;9.40;1.75;;;;;;;15.23;73.38;100805.53;2080197;28;20050;-73
2022/04/10 00:36:55;;;;;;;8.52;1.95;;;;;;;15.20;73.44;100794.91;2068448;28;20046;-73
2022/04/10 00:38:17;;;;;;;5.03;1.48;;;;;;;15.16;73.46;100802.00;2073475;28;20510;-73
2022/04/10 00:39:40;;;;;;;7.00;1.63;;;;;;;15.11;73.78;100793.16;2069472;28;20064;-74
2022/04/10 00:41:03;;;;;;;8.80;2.47;;;;;;;15.09;74.00;100788.75;2076662;28;20083;-73
2022/04/10 00:42:32;;;;;;;7.32;1.75;;;;;;;15.09;74.13;100797.59;2076082;28;20064;-73
2022/04/10 00:44:05;;;;;;;11.38;2.38;;;;;;;15.08;74.00;100785.19;2077726;28;20053;-73
2022/04/10 00:45:28;;;;;;;6.70;1.67;;;;;;;15.04;74.52;100775.44;2070945;28;20078;-73
2022/04/10 00:46:50;;;;;;;5.75;1.92;;;;;;;15.05;74.67;100779.88;2061380;28;20046;-73
2022/04/10 00:48:12;;;;;;;6.93;2.15;;;;;;;15.04;75.07;100783.41;2082193;28;20076;-73
2022/04/10 00:49:35;;;;;;;8.18;3.00;;;;;;;15.07;75.34;100775.44;2078669;28;20056;-74
2022/04/10 00:52:42;;;;;;;10.65;2.00;;;;;;;15.13;75.45;100791.38;2080297;28;20081;-74
2022/04/10 00:54:04;;;;;;;9.30;2.50;;;;;;;15.14;75.33;100782.53;2068610;28;20441;-73
2022/04/10 00:55:28;;;;;;;12.00;2.60;;;;;;;15.15;75.28;100780.75;2066249;28;20103;-73
2022/04/10 00:56:49;;;;;;;9.35;2.33;;;;;;;15.13;75.04;100782.53;2068626;28;20049;-72
2022/04/10 00:58:13;;;;;;;8.40;2.40;;;;;;;15.12;74.99;100770.09;2066545;28;20046;-73
2022/04/10 00:59:36;;;;;;;6.20;1.35;;;;;;;15.09;75.14;100773.69;2073263;28;20095;-73
2022/04/10 01:00:59;;;;;;;4.30;1.77;;;;;;;15.08;75.01;100782.53;2066975;28;20073;-73
2022/04/10 01:02:21;;;;;;;4.35;1.30;;;;;;;15.07;75.06;100777.22;2066394;28;20038;-74
2022/04/10 01:03:44;;;;;;;7.53;2.10;;;;;;;15.04;75.02;100780.75;2073791;28;20434;-73
2022/04/10 01:05:08;;;;;;;9.13;1.58;;;;;;;15.02;75.06;100779.00;2077210;28;20045;-73
2022/04/10 01:06:30;;;;;;;5.65;1.17;;;;;;;15.02;74.97;100773.69;2075907;28;20422;-74
2022/04/10 01:07:53;;;;;;;5.57;1.80;;;;;;;15.01;74.87;100774.56;2070374;28;20403;-73
2022/04/10 01:09:16;;;;;;;9.73;1.40;;;;;;;15.00;74.79;100767.50;2074979;28;20072;-73
2022/04/10 01:10:38;;;;;;;9.23;2.10;;;;;;;14.97;74.90;100776.34;2063700;28;20047;-73
2022/04/10 01:12:01;;;;;;;9.77;1.58;;;;;;;14.96;74.77;100774.59;2069085;28;20045;-74
2022/04/10 01:13:27;;;;;;;7.78;1.50;;;;;;;14.95;74.69;100775.47;2071637;28;20176;-73
2022/04/10 01:14:51;;;;;;;7.22;1.88;;;;;;;14.94;74.65;100771.03;2067481;28;20072;-73
2022/04/10 01:16:17;;;;;;;8.25;2.08;;;;;;;14.92;74.49;100774.59;2068228;28;20120;-74
2022/04/10 01:17:40;;;;;;;14.43;3.22;;;;;;;14.89;74.49;100772.84;2068482;28;20505;-74
2022/04/10 01:19:03;;;;;;;7.47;1.98;;;;;;;14.88;74.44;100767.53;2073956;28;20084;-72
2022/04/10 01:20:27;;;;;;;4.78;1.98;;;;;;;14.86;74.69;100770.16;2069845;28;20106;-72
2022/04/10 01:22:01;;;;;;;7.45;2.47;;;;;;;14.85;74.57;100773.72;2068404;28;20177;-73
2022/04/10 01:23:26;;;;;;;3.20;1.05;;;;;;;14.83;74.46;100770.19;2075210;28;20081;-73
2022/04/10 01:24:49;;;;;;;4.80;1.77;;;;;;;14.82;74.54;100772.84;2075254;28;20140;-73
2022/04/10 01:26:13;;;;;;;8.70;1.38;;;;;;;14.80;74.42;100777.25;2077936;28;20062;-74
2022/04/10 01:27:37;;;;;;;10.63;3.67;;;;;;;14.77;74.30;100763.09;2067993;28;20042;-73
2022/04/10 01:29:01;;;;;;;10.05;1.50;;;;;;;14.74;74.20;100773.75;2077702;28;20148;-74
2022/04/10 01:30:27;;;;;;;6.28;1.13;;;;;;;14.71;74.20;100779.03;2069688;28;20050;-72
2022/04/10 01:31:49;;;;;;;6.78;2.00;;;;;;;14.69;74.22;100778.19;2082254;28;20463;-73
2022/04/10 01:33:12;;;;;;;6.15;2.13;;;;;;;14.68;74.23;100771.09;2077699;28;20073;-73
2022/04/10 01:34:34;;;;;;;6.32;1.83;;;;;;;14.68;74.17;100772.84;2075779;28;20061;-74
2022/04/10 01:35:57;;;;;;;11.85;2.33;;;;;;;14.68;74.14;100775.50;2067908;28;20065;-73
2022/04/10 01:37:22;;;;;;;4.40;1.90;;;;;;;14.67;74.17;100781.72;2069513;28;20049;-73
2022/04/10 01:38:46;;;;;;;8.95;2.08;;;;;;;14.66;74.14;100782.59;2076037;28;20052;-73
2022/04/10 01:40:10;;;;;;;7.63;1.88;;;;;;;14.65;74.32;100786.13;2070649;28;20413;-74
2022/04/10 01:41:34;;;;;;;10.63;2.65;;;;;;;14.66;74.30;100787.91;2063060;28;20041;-72
2022/04/10 01:42:58;;;;;;;4.95;1.42;;;;;;;14.66;74.26;100787.91;2068894;28;20054;-74
2022/04/10 01:44:19;;;;;;;8.98;2.33;;;;;;;14.66;74.44;100790.56;2073961;28;20038;-74
2022/04/10 01:45:42;;;;;;;3.05;0.95;;;;;;;14.65;74.51;100787.03;2084655;28;20138;-73
2022/04/10 01:47:05;;;;;;;9.82;1.90;;;;;;;14.68;74.59;100787.03;2080317;28;20382;-74
2022/04/10 01:48:29;;;;;;;7.50;2.75;;;;;;;14.69;74.44;100782.59;2081413;28;20557;-73
2022/04/10 01:49:52;;;;;;;14.55;2.20;;;;;;;14.70;74.41;100779.91;2080678;28;20153;-73
2022/04/10 01:51:16;;;;;;;3.92;1.00;;;;;;;14.72;74.21;100780.81;2075935;28;20518;-74
2022/04/10 01:52:37;;;;;;;10.98;3.17;;;;;;;14.73;74.14;100776.38;2075579;28;20684;-74
2022/04/10 01:54:01;;;;;;;5.15;1.50;;;;;;;14.74;73.94;100773.75;2079131;28;20111;-73
2022/04/10 01:55:24;;;;;;;11.25;2.20;;;;;;;14.73;73.79;100773.72;2081686;28;20045;-74
2022/04/10 01:56:46;;;;;;;9.32;2.20;;;;;;;14.71;73.66;100775.50;2081085;28;20056;-73
2022/04/10 01:58:08;;;;;;;4.93;2.00;;;;;;;14.68;73.59;100776.41;2072532;28;20053;-73
2022/04/10 01:59:30;;;;;;;5.38;2.30;;;;;;;14.65;73.34;100776.38;2070094;28;20065;-73
2022/04/10 02:00:52;;;;;;;7.32;1.73;;;;;;;14.62;73.33;100779.06;2066472;28;20038;-73
2022/04/10 02:02:16;;;;;;;6.68;1.70;;;;;;;14.60;73.20;100782.59;2070699;28;20046;-74
2022/04/10 02:03:42;;;;;;;8.75;1.90;;;;;;;14.55;72.90;100795.00;2064986;28;20070;-74
2022/04/10 02:05:06;;;;;;;9.25;1.42;;;;;;;14.43;72.50;100792.34;2060671;28;20069;-73
2022/04/10 02:06:28;;;;;;;4.50;1.25;;;;;;;14.27;72.33;100794.97;2075850;28;20104;-73
2022/04/10 02:07:51;;;;;;;4.45;1.23;;;;;;;14.11;72.14;100792.28;2078381;28;20050;-73
2022/04/10 02:09:16;;;;;;;5.22;1.45;;;;;;;13.98;72.21;100791.34;2070233;28;20084;-73
2022/04/10 02:10:38;;;;;;;6.05;1.55;;;;;;;13.89;72.23;100788.69;2084117;28;20446;-73
2022/04/10 02:12:01;;;;;;;9.80;1.85;;;;;;;13.86;72.28;100788.69;2072965;28;20141;-74
2022/04/10 02:13:24;;;;;;;3.80;1.40;;;;;;;13.83;72.16;100789.56;2062373;28;20541;-73
2022/04/10 02:14:46;;;;;;;6.93;1.60;;;;;;;13.80;72.03;100788.66;2068560;28;20042;-74
2022/04/10 02:16:12;;;;;;;3.28;1.42;;;;;;;13.83;72.03;100791.34;2068252;28;20701;-73
2022/04/10 02:17:35;;;;;;;9.00;2.10;;;;;;;13.82;71.88;100789.56;2076692;28;20050;-73
2022/04/10 02:18:57;;;;;;;4.90;1.40;;;;;;;13.83;71.83;100786.03;2072989;28;20050;-73
2022/04/10 02:20:19;;;;;;;11.63;2.47;;;;;;;13.86;71.75;100783.38;2070683;28;20045;-74
2022/04/10 02:21:41;;;;;;;10.88;2.20;;;;;;;13.88;71.66;100787.81;2080083;28;20160;-73
2022/04/10 02:23:03;;;;;;;12.45;2.10;;;;;;;13.82;71.25;100786.91;2070494;28;20054;-73
2022/04/10 02:24:27;;;;;;;9.35;2.00;;;;;;;13.61;70.84;100789.47;2070993;28;20414;-73
2022/04/10 02:25:48;;;;;;;4.18;1.10;;;;;;;13.45;71.01;100781.50;2076319;28;20112;-73
2022/04/10 02:27:12;;;;;;;4.93;1.13;;;;;;;13.49;71.32;100777.97;2076255;28;20112;-73
2022/04/10 02:28:35;;;;;;;8.23;2.33;;;;;;;13.57;71.23;100784.19;2083837;28;20114;-73
2022/04/10 02:29:57;;;;;;;4.68;1.52;;;;;;;13.66;70.98;100779.78;2083656;28;20060;-73
2022/04/10 02:31:22;;;;;;;8.18;2.15;;;;;;;13.71;70.84;100788.66;2076567;28;20041;-74
2022/04/10 02:32:45;;;;;;;9.35;2.58;;;;;;;13.71;70.52;100780.69;2075902;28;20382;-73
2022/04/10 02:34:08;;;;;;;6.43;2.15;;;;;;;13.69;70.48;100790.41;2078375;28;20049;-73
2022/04/10 02:35:31;;;;;;;7.72;2.00;;;;;;;13.68;70.35;100792.16;2067824;28;20553;-73
2022/04/10 02:36:54;;;;;;;8.40;1.90;;;;;;;13.61;70.06;100792.13;2066862;28;20399;-73
2022/04/10 02:38:17;;;;;;;5.78;1.10;;;;;;;13.36;69.31;100788.50;2075043;28;20082;-73
2022/04/10 02:39:43;;;;;;;6.72;1.10;;;;;;;13.19;69.51;100779.59;2070661;28;20103;-73
2022/04/10 02:41:06;;;;;;;9.02;2.15;;;;;;;13.16;69.97;100783.09;2067481;28;20042;-73
2022/04/10 02:42:28;;;;;;;2.70;0.80;;;;;;;13.24;69.97;100786.69;2070025;28;20589;-73
2022/04/10 02:43:51;;;;;;;13.30;1.48;;;;;;;13.33;69.88;100792.03;2062173;28;20050;-73
2022/04/10 02:45:14;;;;;;;4.60;1.73;;;;;;;13.40;69.62;100795.59;2070193;28;20144;-73
2022/04/10 02:46:37;;;;;;;2.75;1.15;;;;;;;13.47;69.44;100792.09;2078210;28;20095;-73
2022/04/10 02:47:59;;;;;;;3.58;1.10;;;;;;;13.53;69.24;100795.66;2077723;28;20557;-73
2022/04/10 02:49:22;;;;;;;5.38;1.10;;;;;;;13.60;69.02;100793.00;2070221;28;20057;-73
2022/04/10 02:50:45;;;;;;;7.22;1.48;;;;;;;13.64;68.88;100792.16;2069598;28;20046;-73
2022/04/10 02:52:10;;;;;;;6.10;1.33;;;;;;;13.65;68.69;100791.28;2076720;28;20569;-73
2022/04/10 02:53:31;;;;;;;7.78;1.75;;;;;;;13.65;68.48;100797.47;2069052;28;20042;-73
2022/04/10 02:54:56;;;;;;;5.90;1.67;;;;;;;13.42;67.82;100786.78;2072355;28;20068;-73
2022/04/10 02:56:18;;;;;;;6.50;1.40;;;;;;;13.07;67.65;100798.91;2078766;28;20083;-72
2022/04/10 02:57:40;;;;;;;5.00;1.70;;;;;;;12.91;68.14;100797.94;2074715;28;20045;-74
2022/04/10 02:59:03;;;;;;;3.45;0.98;;;;;;;12.93;68.35;100800.63;2067079;28;20042;-73
2022/04/10 03:00:26;;;;;;;1.15;0.35;;;;;;;13.04;68.20;100797.16;2067891;28;20057;-73
2022/04/10 03:01:50;;;;;;;3.92;0.82;;;;;;;13.22;67.70;100800.81;2082412;28;20045;-72
2022/04/10 03:03:13;;;;;;;4.68;1.42;;;;;;;13.34;67.16;100799.09;2080651;28;20167;-73
2022/04/10 03:04:34;;;;;;;5.32;1.13;;;;;;;13.45;66.84;100800.06;2070369;28;20417;-73
2022/04/10 03:05:57;;;;;;;5.68;1.13;;;;;;;13.52;66.53;100800.97;2075498;28;20046;-74
2022/04/10 03:07:19;;;;;;;4.78;1.20;;;;;;;13.56;66.29;100802.75;2078067;28;20046;-73
2022/04/10 03:08:41;;;;;;;4.38;0.93;;;;;;;13.58;66.06;100801.00;2070240;28;20050;-73
2022/04/10 03:10:06;;;;;;;2.90;0.75;;;;;;;13.63;65.86;100808.97;2074981;28;20570;-73
2022/04/10 03:11:29;;;;;;;5.15;0.95;;;;;;;13.63;65.67;100798.34;2069891;28;20141;-73
2022/04/10 03:12:52;;;;;;;5.10;1.00;;;;;;;13.66;65.50;100804.53;2077846;28;20148;-73
2022/04/10 03:14:15;;;;;;;3.80;0.70;;;;;;;13.66;65.36;100804.53;2068132;28;20526;-73
2022/04/10 03:15:38;;;;;;;2.65;1.10;;;;;;;13.68;65.19;100804.53;2067881;28;20046;-73
2022/04/10 03:17:01;;;;;;;4.85;0.98;;;;;;;13.67;64.99;100805.41;2067250;28;20092;-73
2022/04/10 03:18:24;;;;;;;3.75;0.90;;;;;;;13.67;64.89;100808.06;2067247;28;20045;-73
2022/04/10 03:19:47;;;;;;;4.32;0.95;;;;;;;13.67;64.84;100813.38;2067853;28;20141;-73
2022/04/10 03:21:10;;;;;;;1.88;0.88;;;;;;;13.63;64.66;100812.50;2070218;28;20099;-73
2022/04/10 03:22:31;;;;;;;2.35;0.80;;;;;;;13.58;64.50;100816.91;2061028;28;20050;-73
2022/04/10 03:23:54;;;;;;;3.40;1.13;;;;;;;13.53;64.32;100823.94;2066633;28;20084;-72
2022/04/10 03:25:18;;;;;;;3.28;0.88;;;;;;;13.49;64.29;100822.16;2069728;28;20042;-74
2022/04/10 03:26:41;;;;;;;3.33;1.98;;;;;;;13.40;64.10;100828.28;2067629;28;20050;-73
2022/04/10 03:28:04;;;;;;;5.80;1.20;;;;;;;13.19;63.86;100828.19;2078315;28;20061;-73
2022/04/10 03:29:27;;;;;;;4.25;0.88;;;;;;;13.02;63.85;100827.16;2069602;28;20042;-73
2022/04/10 03:30:50;;;;;;;5.80;1.02;;;;;;;12.93;64.01;100832.41;2069120;28;20104;-73
2022/04/10 03:32:14;;;;;;;5.25;1.08;;;;;;;12.88;63.91;100823.53;2072796;28;20539;-73
2022/04/10 03:33:35;;;;;;;2.78;1.00;;;;;;;12.88;63.82;100826.16;2075592;28;20103;-73
2022/04/10 03:34:58;;;;;;;7.38;1.30;;;;;;;12.91;63.67;100828.84;2083430;28;20059;-73
2022/04/10 03:36:20;;;;;;;4.32;0.88;;;;;;;12.94;63.46;100821.78;2082521;28;20254;-74
2022/04/10 03:37:43;;;;;;;4.55;1.33;;;;;;;12.98;63.33;100828.03;2077980;28;20493;-74
2022/04/10 03:39:06;;;;;;;5.57;1.00;;;;;;;12.99;63.13;100828.03;2069429;28;20728;-73
2022/04/10 03:40:30;;;;;;;3.83;1.30;;;;;;;13.01;63.09;100838.63;2067503;28;20544;-74
2022/04/10 03:41:52;;;;;;;6.63;1.58;;;;;;;12.98;62.98;100830.66;2074303;28;20046;-73
2022/04/10 03:43:15;;;;;;;6.45;1.48;;;;;;;12.95;62.94;100827.97;2062001;28;20113;-73
2022/04/10 03:44:38;;;;;;;5.47;1.55;;;;;;;12.94;62.88;100842.09;2076428;28;20489;-72
2022/04/10 03:46:01;;;;;;;3.70;0.63;;;;;;;12.87;62.79;100846.47;2077633;28;20678;-73
2022/04/10 03:47:23;;;;;;;5.20;0.80;;;;;;;12.82;63.02;100840.25;2072195;28;20054;-73
2022/04/10 03:48:46;;;;;;;8.77;1.67;;;;;;;12.79;63.17;100848.19;2069911;28;20810;-73
2022/04/10 03:50:09;;;;;;;10.68;1.40;;;;;;;12.79;63.21;100856.16;2072177;28;20124;-73
2022/04/10 03:51:32;;;;;;;3.47;1.02;;;;;;;12.75;63.25;100857.88;2064312;28;20050;-73
2022/04/10 03:52:55;;;;;;;6.88;1.10;;;;;;;12.71;63.23;100853.44;2069583;28;20141;-73
2022/04/10 03:54:18;;;;;;;6.68;1.15;;;;;;;12.67;63.26;100848.97;2076224;28;20076;-73
2022/04/10 03:55:42;;;;;;;6.80;1.48;;;;;;;12.67;63.35;100848.06;2069741;28;20065;-73
2022/04/10 03:57:07;;;;;;;8.48;1.30;;;;;;;12.67;63.31;100848.06;2070088;28;20045;-73
2022/04/10 03:58:29;;;;;;;4.75;0.80;;;;;;;12.68;63.18;100850.75;2066216;28;20137;-74
2022/04/10 03:59:51;;;;;;;6.78;1.40;;;;;;;12.70;63.16;100850.75;2058552;28;20644;-73
2022/04/10 04:01:14;;;;;;;3.70;1.10;;;;;;;12.70;63.06;100851.66;2064163;28;20141;-73
2022/04/10 04:02:41;;;;;;;4.32;0.70;;;;;;;12.73;63.08;100850.81;2063968;28;20046;-74
2022/04/10 04:04:04;;;;;;;6.60;1.52;;;;;;;12.72;63.09;100852.56;2073794;28;20041;-73
2022/04/10 04:05:27;;;;;;;3.17;0.80;;;;;;;12.73;63.08;100854.31;2069561;28;20098;-73
2022/04/10 04:06:50;;;;;;;3.38;0.93;;;;;;;12.77;63.15;100856.13;2067276;28;20065;-73
2022/04/10 04:08:14;;;;;;;3.92;0.80;;;;;;;12.84;63.24;100859.72;2059522;28;20044;-73
2022/04/10 04:09:37;;;;;;;5.60;1.00;;;;;;;12.93;63.20;100857.13;2069106;28;20058;-73
2022/04/10 04:11:02;;;;;;;6.78;1.35;;;;;;;13.03;63.18;100855.44;2066127;28;20093;-72
2022/04/10 04:12:25;;;;;;;9.25;2.03;;;;;;;13.09;63.17;100859.00;2070927;28;20049;-73
2022/04/10 04:13:48;;;;;;;5.78;1.45;;;;;;;13.19;63.07;100860.00;2069391;28;20474;-73
2022/04/10 04:15:11;;;;;;;6.38;1.38;;;;;;;13.27;62.92;100865.34;2069465;28;20069;-73
2022/04/10 04:16:34;;;;;;;4.80;1.15;;;;;;;13.35;62.78;100866.28;2066302;28;20038;-73
2022/04/10 04:17:55;;;;;;;3.22;0.98;;;;;;;13.46;62.74;100868.09;2070643;28;20378;-72
2022/04/10 04:19:18;;;;;;;4.55;0.85;;;;;;;13.61;62.60;100863.75;2075423;28;20045;-73
2022/04/10 04:20:40;;;;;;;4.15;1.33;;;;;;;13.72;62.36;100867.38;2072083;28;20053;-73
2022/04/10 04:22:04;;;;;;;3.03;1.23;;;;;;;13.82;62.13;100866.50;2073948;28;20082;-73
2022/04/10 04:23:30;;;;;;;6.82;1.15;;;;;;;13.91;61.80;100869.22;2078116;28;20037;-73
2022/04/10 04:24:55;;;;;;;4.70;1.15;;;;;;;13.97;61.57;100869.22;2080255;28;20053;-72
2022/04/10 04:26:19;;;;;;;8.73;1.98;;;;;;;14.07;61.50;100879.00;2080480;28;20077;-73
2022/04/10 04:27:41;;;;;;;10.45;4.75;;;;;;;14.17;61.41;100879.91;2074953;28;20041;-73
2022/04/10 04:29:04;;;;;;;12.68;4.80;;;;;;;14.27;61.51;100874.63;2072640;28;20049;-73
2022/04/10 04:30:26;;;;;;;9.40;5.20;;;;;;;14.38;61.24;100874.66;2075284;28;20056;-73
2022/04/10 04:31:54;;;;;;;8.40;2.55;;;;;;;14.49;60.92;100880.91;2078155;28;20053;-73
2022/04/10 04:33:17;;;;;;;5.60;1.90;;;;;;;14.60;60.64;100883.56;2069506;28;20042;-73
2022/04/10 04:34:40;;;;;;;4.75;1.92;;;;;;;14.72;60.55;100883.56;2074718;28;20457;-73
2022/04/10 04:36:03;;;;;;;4.13;2.13;;;;;;;14.79;59.73;100888.00;2071857;28;20045;-73
2022/04/10 04:37:24;;;;;;;5.68;2.35;;;;;;;14.87;59.70;100890.66;2069531;28;20412;-72
2022/04/10 04:38:47;;;;;;;7.57;3.45;;;;;;;14.98;59.53;100896.84;2076274;28;20124;-73
2022/04/10 04:40:11;;;;;;;12.30;5.82;;;;;;;15.08;58.99;100890.66;2066086;28;20695;-73
2022/04/10 04:41:36;;;;;;;10.80;5.38;;;;;;;15.20;59.12;100898.63;2069600;28;20457;-73
2022/04/10 04:42:59;;;;;;;11.35;4.40;;;;;;;15.31;59.09;100898.59;2062820;28;20054;-73
2022/04/10 04:44:24;;;;;;;12.15;4.40;;;;;;;15.45;58.91;100891.47;2067304;28;20046;-72
2022/04/10 04:45:47;;;;;;;7.68;3.58;;;;;;;15.57;58.65;100896.81;2065808;28;20034;-73
2022/04/10 04:47:12;;;;;;;8.13;2.83;;;;;;;15.63;58.04;100902.09;2067408;28;20096;-73
2022/04/10 04:48:35;;;;;;;11.02;3.38;;;;;;;15.58;58.19;100903.00;2068243;28;20163;-73
2022/04/10 04:49:58;;;;;;;6.50;2.50;;;;;;;15.66;58.58;100902.13;2077216;28;20105;-73
2022/04/10 04:51:23;;;;;;;5.32;3.33;;;;;;;15.80;58.35;100899.41;2069731;28;20078;-73
2022/04/10 04:52:46;;;;;;;7.03;2.40;;;;;;;15.94;58.12;100903.81;2074691;28;20045;-72
2022/04/10 04:54:09;;;;;;;22.95;10.88;;;;;;;16.11;57.92;100905.47;2065610;28;20549;-73
2022/04/10 04:55:32;;;;;;;38.42;20.58;;;;;;;16.29;57.74;100900.94;2066870;28;20042;-74
2022/04/10 04:56:56;;;;;;;71.50;46.08;;;;;;;16.49;57.53;100908.81;2066014;28;20050;-71
2022/04/10 04:58:23;;;;;;;72.13;44.42;;;;;;;16.64;57.15;100908.75;2075021;28;20052;-72
2022/04/10 04:59:45;;;;;;;87.25;50.70;;;;;;;16.82;56.84;100913.06;2069338;28;20050;-71
2022/04/10 05:01:08;;;;;;;74.05;44.67;;;;;;;16.96;56.50;100908.53;2074975;28;20049;-71
2022/04/10 05:02:30;;;;;;;78.32;49.75;;;;;;;17.09;56.09;100910.19;2065839;28;20536;-71
2022/04/10 05:03:53;;;;;;;81.47;49.75;;;;;;;17.17;55.64;100914.56;2081938;28;20451;-73
2022/04/10 05:05:15;;;;;;;69.72;43.67;;;;;;;17.22;55.24;100912.72;2069382;28;20048;-74
2022/04/10 05:06:38;;;;;;;56.17;34.70;;;;;;;17.30;54.88;100914.44;2065688;28;20056;-71
2022/04/10 05:08:03;;;;;;;47.72;29.63;;;;;;;17.45;54.78;100918.75;2068604;28;20076;-72
2022/04/10 05:09:24;;;;;;;41.17;25.83;;;;;;;17.61;54.44;100917.72;2069137;28;20124;-71
2022/04/10 05:10:49;;;;;;;34.45;22.40;;;;;;;17.79;53.99;100917.50;2066037;28;20073;-70
2022/04/10 05:12:14;;;;;;;35.40;24.15;;;;;;;17.95;53.00;100915.53;2067514;28;20072;-73
2022/04/10 05:13:39;;;;;;;33.63;22.23;;;;;;;17.97;52.10;100910.19;2065864;28;20049;-70
2022/04/10 05:15:04;;;;;;;37.20;25.48;;;;;;;18.05;51.90;100911.00;2060999;28;20088;-71
2022/04/10 05:16:28;;;;;;;39.83;24.40;;;;;;;18.20;51.58;100916.13;2062491;28;20132;-71
2022/04/10 05:17:51;;;;;;;41.90;26.10;;;;;;;18.41;51.21;100914.94;2058579;28;20072;-71
2022/04/10 05:19:16;;;;;;;39.58;24.95;;;;;;;18.60;50.92;100909.34;2066291;28;20505;-72
2022/04/10 05:20:39;;;;;;;37.08;23.67;;;;;;;18.81;50.56;100913.47;2074304;28;20097;-73
2022/04/10 05:22:08;;;;;;;42.60;25.25;;;;;;;19.03;50.27;100911.34;2068660;28;20097;-72
2022/04/10 05:23:32;;;;;;;48.78;28.55;;;;;;;19.18;49.93;100911.06;2077387;28;20159;-73
2022/04/10 05:25:03;;;;;;;51.90;29.42;;;;;;;19.38;49.45;100918.75;2071887;28;20054;-73
2022/04/10 05:26:29;;;;;;;32.35;18.30;;;;;;;19.50;48.98;100914.09;2069604;28;20162;-73
2022/04/10 05:27:56;;;;;;;38.45;21.38;;;;;;;19.63;48.54;100920.09;2069798;28;20398;-72
2022/04/10 05:29:18;;;;;;;53.15;32.28;;;;;;;19.71;47.93;100912.81;2072247;28;20045;-73
2022/04/10 05:30:41;;;;;;;46.30;27.35;;;;;;;19.86;47.76;100914.31;2069139;28;20522;-72
2022/04/10 05:32:10;;;;;;;37.97;22.48;;;;;;;20.07;47.59;100907.63;2059732;28;20052;-73
2022/04/10 05:33:34;;;;;;;34.10;22.05;;;;;;;20.25;47.53;100910.78;2067390;28;20452;-73
2022/04/10 05:34:56;;;;;;;23.85;13.77;;;;;;;20.41;47.18;100913.19;2068996;28;20048;-72
2022/04/10 05:36:20;;;;;;;22.00;11.10;;;;;;;20.54;46.75;100910.19;2063849;28;20108;-72
2022/04/10 05:37:44;;;;;;;21.75;12.18;;;;;;;20.67;46.56;100908.09;2069490;28;20140;-72
2022/04/10 05:39:06;;;;;;;19.73;8.63;;;;;;;20.78;46.02;100905.16;2074667;28;20049;-73
2022/04/10 05:40:29;;;;;;;11.60;5.35;;;;;;;20.87;46.03;100900.44;2071522;28;20053;-73
2022/04/10 05:41:53;;;;;;;12.50;5.45;;;;;;;20.95;45.73;100903.81;2068496;28;20053;-72
2022/04/10 05:43:17;;;;;;;10.27;4.22;;;;;;;21.07;45.75;100897.25;2074163;28;20526;-72
2022/04/10 05:44:40;;;;;;;19.55;10.15;;;;;;;21.25;45.68;100906.69;2063380;28;20050;-73
2022/04/10 05:46:06;;;;;;;23.35;12.30;;;;;;;21.47;45.29;100903.38;2066146;28;20447;-73
2022/04/10 05:47:30;;;;;;;19.38;9.75;;;;;;;21.73;45.03;100908.03;2075438;28;20041;-71
2022/04/10 05:48:51;;;;;;;17.08;10.02;;;;;;;22.02;44.33;100911.75;2068833;28;20081;-73
2022/04/10 05:50:15;;;;;;;10.80;4.93;;;;;;;22.25;43.75;100910.13;2066567;28;20058;-73
2022/04/10 05:51:38;;;;;;;8.70;4.25;;;;;;;22.47;43.27;100918.44;2080148;28;20037;-73
2022/04/10 05:53:04;;;;;;;8.02;3.75;;;;;;;22.67;42.75;100910.63;2076530;28;20053;-71
2022/04/10 05:54:29;;;;;;;11.60;5.75;;;;;;;22.83;42.42;100908.38;2069476;28;20807;-73
2022/04/10 05:55:55;;;;;;;14.88;7.43;;;;;;;23.00;42.13;100903.28;2074530;28;20053;-73
2022/04/10 05:57:21;;;;;;;10.32;4.60;;;;;;;23.16;41.67;100900.97;2070594;28;20037;-73
2022/04/10 05:58:48;;;;;;;10.95;3.92;;;;;;;23.34;41.50;100903.03;2063461;28;20058;-73
2022/04/10 06:00:14;;;;;;;12.15;5.72;;;;;;;23.53;41.11;100892.50;2066411;28;20510;-73
2022/04/10 06:01:44;;;;;;;9.60;5.03;;;;;;;23.68;40.93;100896.47;2073987;28;20045;-73
2022/04/10 06:03:07;;;;;;;10.95;3.83;;;;;;;23.87;40.90;100893.97;2076071;28;20050;-72
2022/04/10 06:04:33;;;;;;;8.70;4.43;;;;;;;24.07;40.40;100886.91;2077822;28;20080;-73
2022/04/10 06:05:54;;;;;;;10.15;5.30;;;;;;;24.24;39.70;100897.06;2079748;28;20185;-74
2022/04/10 06:07:23;;;;;;;10.95;5.05;;;;;;;24.28;38.89;100887.94;2074330;28;20434;-73
2022/04/10 06:08:45;;;;;;;15.02;6.38;;;;;;;24.17;38.74;100888.31;2068662;28;20042;-73
2022/04/10 06:10:09;;;;;;;12.32;6.68;;;;;;;24.15;38.80;100884.81;2064752;28;20045;-73
2022/04/10 06:11:31;;;;;;;12.65;7.32;;;;;;;24.28;38.82;100890.66;2066447;28;20084;-74
2022/04/10 06:12:53;;;;;;;16.13;7.57;;;;;;;24.48;38.54;100898.81;2061021;28;20630;-73
2022/04/10 06:14:17;;;;;;;13.00;6.97;;;;;;;24.68;37.90;100894.47;2068327;28;20088;-73
2022/04/10 06:15:39;;;;;;;11.15;5.68;;;;;;;24.90;37.45;100895.34;2071681;28;20061;-73
2022/04/10 06:17:02;;;;;;;10.27;5.00;;;;;;;25.04;36.57;100898.38;2065952;28;20108;-73
2022/04/10 06:18:26;;;;;;;10.93;3.67;;;;;;;25.14;36.18;100888.06;2065011;28;20652;-73
2022/04/10 06:19:49;;;;;;;7.50;3.35;;;;;;;25.26;35.81;100888.41;2076494;28;20144;-73
2022/04/10 06:21:15;;;;;;;5.97;2.70;;;;;;;25.41;35.65;100893.13;2067044;28;20480;-74
2022/04/10 06:22:40;;;;;;;7.00;1.85;;;;;;;25.57;35.06;100885.28;2075512;28;20051;-72
2022/04/10 06:24:03;;;;;;;6.57;2.03;;;;;;;25.70;34.69;100888.31;2069990;28;20149;-71
2022/04/10 06:25:32;;;;;;;9.02;3.22;;;;;;;25.84;34.77;100887.69;2067342;28;20058;-73
2022/04/10 06:26:53;;;;;;;12.60;5.90;;;;;;;26.00;34.33;100892.31;2067890;28;20042;-73
2022/04/10 06:28:17;;;;;;;16.63;8.77;;;;;;;26.17;34.05;100880.72;2070384;28;20061;-73